sensor_id;sensor_type;location;lat;lon;timestamp;pressure;altitude;pressure_sealevel;temperature;humidity
77662;BME280;69666;52.136;5.424;2024-03-17T00:00:38;102435.59;;;4.86;79.84
77662;BME280;69666;52.136;5.424;2024-03-17T00:03:08;102431.09;;;4.86;79.82
77662;BME280;69666;52.136;5.424;2024-03-17T00:05:35;102431.94;;;4.87;80.07
77662;BME280;69666;52.136;5.424;2024-03-17T00:08:02;102421.13;;;4.88;80.05
77662;BME280;69666;52.136;5.424;2024-03-17T00:10:31;102418.44;;;4.88;79.99
77662;BME280;69666;52.136;5.424;2024-03-17T00:12:58;102421.13;;;4.88;80.02
77662;BME280;69666;52.136;5.424;2024-03-17T00:15:24;102420.97;;;4.90;79.92
77662;BME280;69666;52.136;5.424;2024-03-17T00:17:50;102418.44;;;4.88;79.97
77662;BME280;69666;52.136;5.424;2024-03-17T00:20:17;102423.78;;;4.88;80.10
77662;BME280;69666;52.136;5.424;2024-03-17T00:22:47;102411.44;;;4.87;80.25
77662;BME280;69666;52.136;5.424;2024-03-17T00:25:14;102413.09;;;4.88;80.24
77662;BME280;69666;52.136;5.424;2024-03-17T00:27:40;102405.09;;;4.88;80.16
77662;BME280;69666;52.136;5.424;2024-03-17T00:30:10;102407.78;;;4.88;80.06
77662;BME280;69666;52.136;5.424;2024-03-17T00:32:39;102413.97;;;4.89;79.98
77662;BME280;69666;52.136;5.424;2024-03-17T00:35:07;102407.91;;;4.87;80.23
77662;BME280;69666;52.136;5.424;2024-03-17T00:37:35;102405.25;;;4.87;80.14
77662;BME280;69666;52.136;5.424;2024-03-17T00:40:03;102399.06;;;4.86;80.24
77662;BME280;69666;52.136;5.424;2024-03-17T00:42:29;102404.53;;;4.85;80.20
77662;BME280;69666;52.136;5.424;2024-03-17T00:44:56;102394.84;;;4.84;80.23
77662;BME280;69666;52.136;5.424;2024-03-17T00:47:22;102394.69;;;4.85;80.32
77662;BME280;69666;52.136;5.424;2024-03-17T00:49:49;102395.69;;;4.84;80.57
77662;BME280;69666;52.136;5.424;2024-03-17T00:52:16;102387.66;;;4.84;80.50
77662;BME280;69666;52.136;5.424;2024-03-17T00:54:46;102393.00;;;4.84;80.50
77662;BME280;69666;52.136;5.424;2024-03-17T00:57:13;102395.41;;;4.87;80.44
77662;BME280;69666;52.136;5.424;2024-03-17T00:59:40;102393.72;;;4.86;80.53
77662;BME280;69666;52.136;5.424;2024-03-17T01:02:06;102392.72;;;4.87;80.70
77662;BME280;69666;52.136;5.424;2024-03-17T01:04:32;102398.78;;;4.89;80.77
77662;BME280;69666;52.136;5.424;2024-03-17T01:07:00;102390.06;;;4.87;80.62
77662;BME280;69666;52.136;5.424;2024-03-17T01:09:26;102400.59;;;4.89;80.74
77662;BME280;69666;52.136;5.424;2024-03-17T01:11:52;102391.75;;;4.88;80.54
77662;BME280;69666;52.136;5.424;2024-03-17T01:14:18;102391.75;;;4.88;80.72
77662;BME280;69666;52.136;5.424;2024-03-17T01:16:44;102382.75;;;4.89;80.99
77662;BME280;69666;52.136;5.424;2024-03-17T01:19:11;102383.47;;;4.91;81.01
77662;BME280;69666;52.136;5.424;2024-03-17T01:21:38;102383.31;;;4.93;80.82
77662;BME280;69666;52.136;5.424;2024-03-17T01:24:04;102377.13;;;4.92;81.10
77662;BME280;69666;52.136;5.424;2024-03-17T01:26:30;102377.84;;;4.94;81.03
77662;BME280;69666;52.136;5.424;2024-03-17T01:28:56;102378.53;;;4.96;81.01
77662;BME280;69666;52.136;5.424;2024-03-17T01:31:22;102368.84;;;4.95;81.16
77662;BME280;69666;52.136;5.424;2024-03-17T01:33:48;102367.84;;;4.96;81.01
77662;BME280;69666;52.136;5.424;2024-03-17T01:36:15;102365.88;;;4.98;81.06
77662;BME280;69666;52.136;5.424;2024-03-17T01:38:41;102363.06;;;5.00;81.18
77662;BME280;69666;52.136;5.424;2024-03-17T01:41:07;102358.56;;;5.01;81.13
77662;BME280;69666;52.136;5.424;2024-03-17T01:43:33;102352.25;;;5.02;81.23
77662;BME280;69666;52.136;5.424;2024-03-17T01:46:00;102353.94;;;5.03;81.28
77662;BME280;69666;52.136;5.424;2024-03-17T01:48:27;102344.94;;;5.04;81.02
77662;BME280;69666;52.136;5.424;2024-03-17T01:50:55;102342.28;;;5.04;81.04
77662;BME280;69666;52.136;5.424;2024-03-17T01:53:22;102339.59;;;5.04;80.99
77662;BME280;69666;52.136;5.424;2024-03-17T01:55:57;102334.25;;;5.04;81.17
77662;BME280;69666;52.136;5.424;2024-03-17T01:58:30;102343.94;;;5.05;81.25
77662;BME280;69666;52.136;5.424;2024-03-17T02:00:56;102343.94;;;5.05;81.32
77662;BME280;69666;52.136;5.424;2024-03-17T02:03:23;102333.28;;;5.05;81.15
77662;BME280;69666;52.136;5.424;2024-03-17T02:05:49;102333.28;;;5.05;81.33
77662;BME280;69666;52.136;5.424;2024-03-17T02:08:15;102332.44;;;5.04;81.40
77662;BME280;69666;52.136;5.424;2024-03-17T02:10:42;102331.59;;;5.04;81.34
77662;BME280;69666;52.136;5.424;2024-03-17T02:13:08;102340.28;;;5.06;81.45
77662;BME280;69666;52.136;5.424;2024-03-17T02:15:35;102329.63;;;5.06;81.58
77662;BME280;69666;52.136;5.424;2024-03-17T02:18:01;102328.47;;;5.08;81.61
77662;BME280;69666;52.136;5.424;2024-03-17T02:20:27;102336.06;;;5.13;81.86
77662;BME280;69666;52.136;5.424;2024-03-17T02:23:12;102322.44;;;5.16;82.06
77662;BME280;69666;52.136;5.424;2024-03-17T02:25:38;102321.81;;;5.22;81.64
77662;BME280;69666;52.136;5.424;2024-03-17T02:28:05;102327.59;;;5.27;81.60
77662;BME280;69666;52.136;5.424;2024-03-17T02:30:32;102323.63;;;5.31;81.45
77662;BME280;69666;52.136;5.424;2024-03-17T02:32:58;102319.69;;;5.35;81.47
77662;BME280;69666;52.136;5.424;2024-03-17T02:35:24;102320.25;;;5.39;81.68
77662;BME280;69666;52.136;5.424;2024-03-17T02:37:51;102306.44;;;5.43;81.74
77662;BME280;69666;52.136;5.424;2024-03-17T02:40:17;102307.84;;;5.47;82.13
77662;BME280;69666;52.136;5.424;2024-03-17T02:42:45;102296.88;;;5.50;81.92
77662;BME280;69666;52.136;5.424;2024-03-17T02:45:12;102306.28;;;5.54;81.73
77662;BME280;69666;52.136;5.424;2024-03-17T02:47:39;102303.31;;;5.57;81.91
77662;BME280;69666;52.136;5.424;2024-03-17T02:50:06;102297.66;;;5.60;81.60
77662;BME280;69666;52.136;5.424;2024-03-17T02:52:33;102299.06;;;5.64;81.72
77662;BME280;69666;52.136;5.424;2024-03-17T02:54:59;102297.78;;;5.69;81.82
77662;BME280;69666;52.136;5.424;2024-03-17T02:57:26;102302.13;;;5.70;81.31
77662;BME280;69666;52.136;5.424;2024-03-17T02:59:56;102303.50;;;5.74;81.58
77662;BME280;69666;52.136;5.424;2024-03-17T03:02:23;102304.19;;;5.76;81.27
77662;BME280;69666;52.136;5.424;2024-03-17T03:04:50;102299.53;;;5.78;81.16
77662;BME280;69666;52.136;5.424;2024-03-17T03:07:16;102300.09;;;5.81;81.19
77662;BME280;69666;52.136;5.424;2024-03-17T03:09:44;102296.44;;;5.82;81.01
77662;BME280;69666;52.136;5.424;2024-03-17T03:12:10;102297.97;;;5.85;80.95
77662;BME280;69666;52.136;5.424;2024-03-17T03:14:36;102295.13;;;5.86;81.17
77662;BME280;69666;52.136;5.424;2024-03-17T03:17:02;102297.56;;;5.89;81.03
77662;BME280;69666;52.136;5.424;2024-03-17T03:19:29;102294.72;;;5.91;81.22
77662;BME280;69666;52.136;5.424;2024-03-17T03:21:56;102301.47;;;5.95;81.21
77662;BME280;69666;52.136;5.424;2024-03-17T03:24:22;102290.47;;;5.98;80.80
77662;BME280;69666;52.136;5.424;2024-03-17T03:26:48;102292.16;;;5.99;81.06
77662;BME280;69666;52.136;5.424;2024-03-17T03:29:14;102291.84;;;6.02;80.96
77662;BME280;69666;52.136;5.424;2024-03-17T03:31:41;102293.25;;;6.06;80.98
77662;BME280;69666;52.136;5.424;2024-03-17T03:34:07;102293.94;;;6.08;80.78
77662;BME280;69666;52.136;5.424;2024-03-17T03:36:35;102288.97;;;6.13;80.72
77662;BME280;69666;52.136;5.424;2024-03-17T03:39:03;102292.34;;;6.15;80.87
77662;BME280;69666;52.136;5.424;2024-03-17T03:41:32;102287.53;;;6.19;80.86
77662;BME280;69666;52.136;5.424;2024-03-17T03:43:59;102289.91;;;6.22;80.40
77662;BME280;69666;52.136;5.424;2024-03-17T03:46:25;102278.22;;;6.23;80.70
77662;BME280;69666;52.136;5.424;2024-03-17T03:48:52;102278.03;;;6.24;80.59
77662;BME280;69666;52.136;5.424;2024-03-17T03:51:18;102276.88;;;6.27;80.45
77662;BME280;69666;52.136;5.424;2024-03-17T03:53:45;102268.69;;;6.28;80.78
77662;BME280;69666;52.136;5.424;2024-03-17T03:56:11;102259.69;;;6.29;80.49
77662;BME280;69666;52.136;5.424;2024-03-17T03:58:38;102262.19;;;6.31;80.56
77662;BME280;69666;52.136;5.424;2024-03-17T04:01:08;102260.38;;;6.31;80.50
77662;BME280;69666;52.136;5.424;2024-03-17T04:03:35;102255.84;;;6.32;80.40
77662;BME280;69666;52.136;5.424;2024-03-17T04:06:09;102249.66;;;6.31;80.62
77662;BME280;69666;52.136;5.424;2024-03-17T04:08:38;102250.19;;;6.35;80.28
77662;BME280;69666;52.136;5.424;2024-03-17T04:11:08;102240.34;;;6.36;80.41
77662;BME280;69666;52.136;5.424;2024-03-17T04:13:34;102234.84;;;6.37;80.35
77662;BME280;69666;52.136;5.424;2024-03-17T04:16:04;102231.31;;;6.37;80.23
77662;BME280;69666;52.136;5.424;2024-03-17T04:18:32;102230.63;;;6.35;80.08
77662;BME280;69666;52.136;5.424;2024-03-17T04:21:05;102232.47;;;6.34;80.13
77662;BME280;69666;52.136;5.424;2024-03-17T04:23:33;102229.78;;;6.34;80.20
77662;BME280;69666;52.136;5.424;2024-03-17T04:26:00;102233.59;;;6.31;79.94
77662;BME280;69666;52.136;5.424;2024-03-17T04:28:27;102233.59;;;6.31;80.13
77662;BME280;69666;52.136;5.424;2024-03-17T04:31:07;102235.28;;;6.32;80.34
77662;BME280;69666;52.136;5.424;2024-03-17T04:33:34;102229.09;;;6.32;80.04
77662;BME280;69666;52.136;5.424;2024-03-17T04:36:02;102217.53;;;6.31;80.13
77662;BME280;69666;52.136;5.424;2024-03-17T04:38:28;102214.03;;;6.31;80.13
77662;BME280;69666;52.136;5.424;2024-03-17T04:40:54;102211.97;;;6.25;80.69
77662;BME280;69666;52.136;5.424;2024-03-17T04:43:37;102215.31;;;6.27;80.47
77662;BME280;69666;52.136;5.424;2024-03-17T04:46:04;102211.47;;;6.21;80.52
77662;BME280;69666;52.136;5.424;2024-03-17T04:48:32;102211.97;;;6.25;80.41
77662;BME280;69666;52.136;5.424;2024-03-17T04:50:59;102214.47;;;6.26;80.33
77662;BME280;69666;52.136;5.424;2024-03-17T04:53:26;102206.59;;;6.25;80.60
77662;BME280;69666;52.136;5.424;2024-03-17T04:56:05;102216.16;;;6.27;80.39
77662;BME280;69666;52.136;5.424;2024-03-17T04:58:32;102220.69;;;6.27;80.30
77662;BME280;69666;52.136;5.424;2024-03-17T05:01:06;102219.00;;;6.26;80.60
77662;BME280;69666;52.136;5.424;2024-03-17T05:03:33;102221.38;;;6.29;80.70
77662;BME280;69666;52.136;5.424;2024-03-17T05:06:01;102225.41;;;6.33;80.42
77662;BME280;69666;52.136;5.424;2024-03-17T05:08:28;102226.25;;;6.34;80.45
77662;BME280;69666;52.136;5.424;2024-03-17T05:10:59;102216.25;;;6.36;80.47
77662;BME280;69666;52.136;5.424;2024-03-17T05:13:26;102221.13;;;6.40;80.20
77662;BME280;69666;52.136;5.424;2024-03-17T05:15:54;102220.28;;;6.40;80.30
77662;BME280;69666;52.136;5.424;2024-03-17T05:18:20;102218.91;;;6.36;80.99
77662;BME280;69666;52.136;5.424;2024-03-17T05:23:28;102207.06;;;6.38;80.62
77662;BME280;69666;52.136;5.424;2024-03-17T05:25:55;102225.66;;;6.40;80.73
77662;BME280;69666;52.136;5.424;2024-03-17T05:28:26;102214.09;;;6.39;80.61
77662;BME280;69666;52.136;5.424;2024-03-17T05:30:53;102217.63;;;6.40;80.99
77662;BME280;69666;52.136;5.424;2024-03-17T05:33:21;102218.47;;;6.40;80.98
77662;BME280;69666;52.136;5.424;2024-03-17T05:35:55;102220.00;;;6.43;80.84
77662;BME280;69666;52.136;5.424;2024-03-17T05:38:23;102216.31;;;6.44;80.64
77662;BME280;69666;52.136;5.424;2024-03-17T05:41:05;102205.59;;;6.44;81.00
77662;BME280;69666;52.136;5.424;2024-03-17T05:43:34;102206.97;;;6.48;80.57
77662;BME280;69666;52.136;5.424;2024-03-17T05:46:09;102205.31;;;6.47;80.67
77662;BME280;69666;52.136;5.424;2024-03-17T05:48:37;102206.97;;;6.48;80.80
77662;BME280;69666;52.136;5.424;2024-03-17T05:51:05;102206.97;;;6.48;80.63
77662;BME280;69666;52.136;5.424;2024-03-17T05:53:32;102206.97;;;6.48;81.12
77662;BME280;69666;52.136;5.424;2024-03-17T05:55:59;102207.81;;;6.48;80.80
77662;BME280;69666;52.136;5.424;2024-03-17T05:58:26;102207.66;;;6.50;80.73
77662;BME280;69666;52.136;5.424;2024-03-17T06:00:53;102220.06;;;6.51;80.88
77662;BME280;69666;52.136;5.424;2024-03-17T06:03:19;102212.88;;;6.51;80.67
77662;BME280;69666;52.136;5.424;2024-03-17T06:05:45;102213.41;;;6.55;80.49
77662;BME280;69666;52.136;5.424;2024-03-17T06:08:12;102218.06;;;6.53;80.69
77662;BME280;69666;52.136;5.424;2024-03-17T06:10:44;102215.94;;;6.56;80.57
77662;BME280;69666;52.136;5.424;2024-03-17T06:13:10;102217.38;;;6.51;81.10
77662;BME280;69666;52.136;5.424;2024-03-17T06:15:45;102214.41;;;6.54;80.84
77662;BME280;69666;52.136;5.424;2024-03-17T06:18:14;102212.41;;;6.56;81.11
77662;BME280;69666;52.136;5.424;2024-03-17T06:20:42;102212.09;;;6.59;80.76
77662;BME280;69666;52.136;5.424;2024-03-17T06:23:13;102212.09;;;6.59;81.01
77662;BME280;69666;52.136;5.424;2024-03-17T06:25:47;102207.75;;;6.58;81.40
77662;BME280;69666;52.136;5.424;2024-03-17T06:28:16;102201.06;;;6.62;81.18
77662;BME280;69666;52.136;5.424;2024-03-17T06:30:44;102202.91;;;6.61;81.35
77662;BME280;69666;52.136;5.424;2024-03-17T06:33:16;102204.13;;;6.67;81.11
77662;BME280;69666;52.136;5.424;2024-03-17T06:35:46;102208.19;;;6.71;81.07
77662;BME280;69666;52.136;5.424;2024-03-17T06:38:15;102208.38;;;6.78;81.46
77662;BME280;69666;52.136;5.424;2024-03-17T06:40:47;102202.38;;;6.84;81.40
77662;BME280;69666;52.136;5.424;2024-03-17T06:43:13;102200.59;;;6.92;81.40
77662;BME280;69666;52.136;5.424;2024-03-17T06:45:39;102202.28;;;6.93;81.49
77662;BME280;69666;52.136;5.424;2024-03-17T06:48:06;102197.97;;;7.01;81.42
77662;BME280;69666;52.136;5.424;2024-03-17T06:50:33;102199.72;;;7.10;81.36
77662;BME280;69666;52.136;5.424;2024-03-17T06:52:59;102207.13;;;7.16;81.34
77662;BME280;69666;52.136;5.424;2024-03-17T06:55:25;102209.00;;;7.23;81.31
77662;BME280;69666;52.136;5.424;2024-03-17T06:57:54;102210.69;;;7.32;81.09
77662;BME280;69666;52.136;5.424;2024-03-17T07:00:20;102208.53;;;7.36;80.88
77662;BME280;69666;52.136;5.424;2024-03-17T07:02:51;102206.53;;;7.38;81.31
77662;BME280;69666;52.136;5.424;2024-03-17T07:05:17;102200.53;;;7.44;80.81
77662;BME280;69666;52.136;5.424;2024-03-17T07:07:44;102202.25;;;7.53;80.81
77662;BME280;69666;52.136;5.424;2024-03-17T07:10:12;102203.44;;;7.59;80.53
77662;BME280;69666;52.136;5.424;2024-03-17T07:12:39;102195.91;;;7.62;80.61
77662;BME280;69666;52.136;5.424;2024-03-17T07:15:06;102198.78;;;7.69;80.44
77662;BME280;69666;52.136;5.424;2024-03-17T07:17:33;102206.34;;;7.74;80.50
77662;BME280;69666;52.136;5.424;2024-03-17T07:20:00;102202.66;;;7.83;80.36
77662;BME280;69666;52.136;5.424;2024-03-17T07:22:27;102208.06;;;7.91;80.27
77662;BME280;69666;52.136;5.424;2024-03-17T07:24:55;102211.75;;;7.98;80.22
77662;BME280;69666;52.136;5.424;2024-03-17T07:27:24;102214.47;;;8.06;80.37
77662;BME280;69666;52.136;5.424;2024-03-17T07:29:50;102214.81;;;8.19;80.26
77662;BME280;69666;52.136;5.424;2024-03-17T07:32:17;102218.03;;;8.31;80.20
77662;BME280;69666;52.136;5.424;2024-03-17T07:34:43;102210.84;;;8.48;79.96
77662;BME280;69666;52.136;5.424;2024-03-17T07:37:09;102204.63;;;8.63;79.40
77662;BME280;69666;52.136;5.424;2024-03-17T07:39:35;102197.72;;;8.77;79.55
77662;BME280;69666;52.136;5.424;2024-03-17T07:42:02;102205.91;;;8.92;79.16
77662;BME280;69666;52.136;5.424;2024-03-17T07:44:29;102205.03;;;9.08;78.58
77662;BME280;69666;52.136;5.424;2024-03-17T07:47:03;102204.69;;;9.19;78.30
77662;BME280;69666;52.136;5.424;2024-03-17T07:49:33;102202.28;;;9.32;78.15
77662;BME280;69666;52.136;5.424;2024-03-17T07:51:59;102199.38;;;9.42;77.59
77662;BME280;69666;52.136;5.424;2024-03-17T07:54:26;102191.63;;;9.47;77.25
77662;BME280;69666;52.136;5.424;2024-03-17T07:56:53;102189.38;;;9.58;77.48
77662;BME280;69666;52.136;5.424;2024-03-17T07:59:19;102184.81;;;9.67;77.62
77662;BME280;69666;52.136;5.424;2024-03-17T08:01:45;102189.16;;;9.68;76.58
77662;BME280;69666;52.136;5.424;2024-03-17T08:04:12;102180.41;;;9.74;76.34
77662;BME280;69666;52.136;5.424;2024-03-17T08:06:41;102183.22;;;9.81;77.17
77662;BME280;69666;52.136;5.424;2024-03-17T08:09:08;102194.56;;;9.91;76.72
77662;BME280;69666;52.136;5.424;2024-03-17T08:11:35;102199.59;;;9.94;75.78
77662;BME280;69666;52.136;5.424;2024-03-17T08:14:02;102193.88;;;9.97;75.82
77662;BME280;69666;52.136;5.424;2024-03-17T08:16:28;102203.09;;;10.03;75.49
77662;BME280;69666;52.136;5.424;2024-03-17T08:18:56;102202.25;;;10.02;76.20
77662;BME280;69666;52.136;5.424;2024-03-17T08:21:22;102191.13;;;10.05;76.49
77662;BME280;69666;52.136;5.424;2024-03-17T08:23:49;102190.63;;;10.02;76.21
77662;BME280;69666;52.136;5.424;2024-03-17T08:26:15;102190.28;;;10.05;76.98
77662;BME280;69666;52.136;5.424;2024-03-17T08:28:42;102185.25;;;10.02;76.01
77662;BME280;69666;52.136;5.424;2024-03-17T08:31:08;102187.81;;;9.95;76.52
77662;BME280;69666;52.136;5.424;2024-03-17T08:33:35;102187.28;;;10.00;76.20
77662;BME280;69666;52.136;5.424;2024-03-17T08:36:04;102184.78;;;9.98;75.67
77662;BME280;69666;52.136;5.424;2024-03-17T08:38:31;102186.97;;;9.94;76.62
77662;BME280;69666;52.136;5.424;2024-03-17T08:41:03;102178.72;;;9.96;76.30
77662;BME280;69666;52.136;5.424;2024-03-17T08:43:30;102182.78;;;9.92;76.01
77662;BME280;69666;52.136;5.424;2024-03-17T08:46:00;102179.25;;;9.91;76.64
77662;BME280;69666;52.136;5.424;2024-03-17T08:48:30;102174.88;;;9.90;77.00
77662;BME280;69666;52.136;5.424;2024-03-17T08:50:58;102170.69;;;9.88;76.69
77662;BME280;69666;52.136;5.424;2024-03-17T08:53:25;102165.25;;;9.96;76.50
77662;BME280;69666;52.136;5.424;2024-03-17T08:55:52;102170.13;;;10.01;76.85
77662;BME280;69666;52.136;5.424;2024-03-17T08:58:19;102172.94;;;10.07;76.68
77662;BME280;69666;52.136;5.424;2024-03-17T09:00:46;102181.31;;;10.12;77.37
77662;BME280;69666;52.136;5.424;2024-03-17T09:03:12;102180.59;;;10.18;77.07
77662;BME280;69666;52.136;5.424;2024-03-17T09:05:40;102175.19;;;10.26;76.82
77662;BME280;69666;52.136;5.424;2024-03-17T09:08:07;102168.97;;;10.26;76.37
77662;BME280;69666;52.136;5.424;2024-03-17T09:10:40;102174.28;;;10.34;75.64
77662;BME280;69666;52.136;5.424;2024-03-17T09:13:13;102161.94;;;10.40;75.60
77662;BME280;69666;52.136;5.424;2024-03-17T09:15:40;102165.50;;;10.55;75.85
77662;BME280;69666;52.136;5.424;2024-03-17T09:18:06;102163.38;;;10.65;75.37
77662;BME280;69666;52.136;5.424;2024-03-17T09:20:33;102173.72;;;10.76;75.02
77662;BME280;69666;52.136;5.424;2024-03-17T09:22:59;102166.38;;;10.85;75.86
77662;BME280;69666;52.136;5.424;2024-03-17T09:25:25;102163.97;;;10.90;74.50
77662;BME280;69666;52.136;5.424;2024-03-17T09:27:51;102159.03;;;10.93;74.91
77662;BME280;69666;52.136;5.424;2024-03-17T09:30:17;102166.09;;;10.94;75.28
77662;BME280;69666;52.136;5.424;2024-03-17T09:32:44;102160.78;;;11.01;74.91
77662;BME280;69666;52.136;5.424;2024-03-17T09:35:11;102157.91;;;11.03;73.91
77662;BME280;69666;52.136;5.424;2024-03-17T09:37:37;102164.50;;;11.00;73.56
77662;BME280;69666;52.136;5.424;2024-03-17T09:40:03;102169.34;;;11.05;74.57
77662;BME280;69666;52.136;5.424;2024-03-17T09:42:32;102164.91;;;11.12;74.15
77662;BME280;69666;52.136;5.424;2024-03-17T09:44:58;102162.28;;;11.18;75.74
77662;BME280;69666;52.136;5.424;2024-03-17T09:47:25;102157.34;;;11.22;75.13
77662;BME280;69666;52.136;5.424;2024-03-17T09:49:52;102157.81;;;11.25;74.93
77662;BME280;69666;52.136;5.424;2024-03-17T09:52:24;102159.97;;;11.30;73.02
77662;BME280;69666;52.136;5.424;2024-03-17T09:54:59;102155.94;;;11.41;72.86
77662;BME280;69666;52.136;5.424;2024-03-17T09:57:26;102166.44;;;11.50;73.95
77662;BME280;69666;52.136;5.424;2024-03-17T09:59:53;102164.84;;;11.56;73.30
77662;BME280;69666;52.136;5.424;2024-03-17T10:02:22;102153.75;;;11.66;74.13
77662;BME280;69666;52.136;5.424;2024-03-17T10:04:49;102147.69;;;11.78;74.13
77662;BME280;69666;52.136;5.424;2024-03-17T10:07:15;102144.41;;;11.83;72.52
77662;BME280;69666;52.136;5.424;2024-03-17T10:09:44;102140.81;;;11.97;72.34
77662;BME280;69666;52.136;5.424;2024-03-17T10:12:26;102133.91;;;12.16;72.87
77662;BME280;69666;52.136;5.424;2024-03-17T10:14:59;102139.97;;;12.39;72.80
77662;BME280;69666;52.136;5.424;2024-03-17T10:17:33;102136.81;;;12.64;72.75
77662;BME280;69666;52.136;5.424;2024-03-17T10:23:03;102143.72;;;12.73;70.71
77662;BME280;69666;52.136;5.424;2024-03-17T10:25:34;102138.13;;;12.74;71.50
77662;BME280;69666;52.136;5.424;2024-03-17T10:28:10;102130.06;;;12.81;71.82
77662;BME280;69666;52.136;5.424;2024-03-17T10:30:37;102130.94;;;12.88;71.59
77662;BME280;69666;52.136;5.424;2024-03-17T10:33:07;102127.84;;;12.91;70.99
77662;BME280;69666;52.136;5.424;2024-03-17T10:35:38;102123.50;;;12.97;70.74
77662;BME280;69666;52.136;5.424;2024-03-17T10:38:09;102122.78;;;13.16;73.01
77662;BME280;69666;52.136;5.424;2024-03-17T10:40:39;102112.31;;;13.47;70.44
77662;BME280;69666;52.136;5.424;2024-03-17T10:43:06;102115.50;;;13.84;71.94
77662;BME280;69666;52.136;5.424;2024-03-17T10:45:33;102113.22;;;14.07;69.82
77662;BME280;69666;52.136;5.424;2024-03-17T10:48:07;102111.38;;;14.28;68.08
77662;BME280;69666;52.136;5.424;2024-03-17T10:50:39;102111.19;;;14.49;67.22
77662;BME280;69666;52.136;5.424;2024-03-17T10:53:06;102102.38;;;14.67;64.27
77662;BME280;69666;52.136;5.424;2024-03-17T10:55:44;102105.06;;;14.93;67.58
77662;BME280;69666;52.136;5.424;2024-03-17T10:58:23;102103.13;;;15.07;65.85
77662;BME280;69666;52.136;5.424;2024-03-17T11:00:53;102101.78;;;15.29;66.79
77662;BME280;69666;52.136;5.424;2024-03-17T11:03:19;102095.22;;;15.50;66.45
77662;BME280;69666;52.136;5.424;2024-03-17T11:05:49;102099.53;;;15.64;66.09
77662;BME280;69666;52.136;5.424;2024-03-17T11:08:17;102092.16;;;15.71;64.81
77662;BME280;69666;52.136;5.424;2024-03-17T11:10:51;102092.25;;;15.89;64.91
77662;BME280;69666;52.136;5.424;2024-03-17T11:13:28;102088.09;;;16.12;63.83
77662;BME280;69666;52.136;5.424;2024-03-17T11:15:56;102085.72;;;16.22;62.11
77662;BME280;69666;52.136;5.424;2024-03-17T11:18:35;102085.06;;;16.27;64.08
77662;BME280;69666;52.136;5.424;2024-03-17T11:21:02;102078.66;;;16.14;60.54
77662;BME280;69666;52.136;5.424;2024-03-17T11:23:35;102081.69;;;16.06;62.70
77662;BME280;69666;52.136;5.424;2024-03-17T11:26:04;102091.03;;;15.85;61.98
77662;BME280;69666;52.136;5.424;2024-03-17T11:34:04;102088.50;;;15.52;62.07
77662;BME280;69666;52.136;5.424;2024-03-17T11:36:37;102071.06;;;15.29;64.14
77662;BME280;69666;52.136;5.424;2024-03-17T11:39:06;102075.47;;;15.23;63.85
77662;BME280;69666;52.136;5.424;2024-03-17T11:44:32;102071.03;;;14.90;63.32
77662;BME280;69666;52.136;5.424;2024-03-17T11:47:00;102075.66;;;14.83;64.80
77662;BME280;69666;52.136;5.424;2024-03-17T11:49:34;102068.97;;;14.79;64.77
77662;BME280;69666;52.136;5.424;2024-03-17T11:52:09;102077.34;;;14.71;64.50
77662;BME280;69666;52.136;5.424;2024-03-17T11:54:38;102083.25;;;14.55;64.83
77662;BME280;69666;52.136;5.424;2024-03-17T11:57:07;102081.97;;;14.38;64.53
77662;BME280;69666;52.136;5.424;2024-03-17T11:59:34;102074.03;;;14.30;64.89
77662;BME280;69666;52.136;5.424;2024-03-17T12:02:01;102082.59;;;14.13;64.62
77662;BME280;69666;52.136;5.424;2024-03-17T12:04:28;102080.72;;;14.07;66.21
77662;BME280;69666;52.136;5.424;2024-03-17T12:06:56;102080.94;;;13.99;66.33
77662;BME280;69666;52.136;5.424;2024-03-17T12:09:26;102078.63;;;13.83;65.87
77662;BME280;69666;52.136;5.424;2024-03-17T12:12:03;102074.84;;;13.71;65.44
77662;BME280;69666;52.136;5.424;2024-03-17T12:14:31;102080.00;;;13.52;65.98
77662;BME280;69666;52.136;5.424;2024-03-17T12:17:01;102057.75;;;13.50;65.26
77662;BME280;69666;52.136;5.424;2024-03-17T12:19:28;102064.59;;;13.46;67.25
77662;BME280;69666;52.136;5.424;2024-03-17T12:21:59;102063.13;;;13.37;66.48
77662;BME280;69666;52.136;5.424;2024-03-17T12:24:27;102055.63;;;13.39;67.12
77662;BME280;69666;52.136;5.424;2024-03-17T12:26:55;102059.78;;;13.35;66.82
77662;BME280;69666;52.136;5.424;2024-03-17T12:29:30;102053.97;;;13.45;67.67
77662;BME280;69666;52.136;5.424;2024-03-17T12:32:00;102051.50;;;13.50;67.22
77662;BME280;69666;52.136;5.424;2024-03-17T12:34:30;102040.66;;;13.56;67.26
77662;BME280;69666;52.136;5.424;2024-03-17T12:36:58;102043.56;;;13.62;67.67
77662;BME280;69666;52.136;5.424;2024-03-17T12:39:30;102037.75;;;13.71;68.63
77662;BME280;69666;52.136;5.424;2024-03-17T12:42:05;102047.13;;;13.69;67.46
77662;BME280;69666;52.136;5.424;2024-03-17T12:44:33;102034.00;;;13.72;66.80
77662;BME280;69666;52.136;5.424;2024-03-17T12:47:02;102028.16;;;13.62;66.57
77662;BME280;69666;52.136;5.424;2024-03-17T12:49:30;102024.84;;;13.67;65.77
77662;BME280;69666;52.136;5.424;2024-03-17T12:51:57;102022.34;;;13.72;66.97
77662;BME280;69666;52.136;5.424;2024-03-17T12:54:25;102015.06;;;13.79;67.19
77662;BME280;69666;52.136;5.424;2024-03-17T12:57:03;102018.59;;;13.73;66.85
77662;BME280;69666;52.136;5.424;2024-03-17T12:59:49;102021.53;;;13.78;67.51
77662;BME280;69666;52.136;5.424;2024-03-17T13:02:34;102012.78;;;13.76;67.47
77662;BME280;69666;52.136;5.424;2024-03-17T13:05:07;102015.47;;;13.76;67.17
77662;BME280;69666;52.136;5.424;2024-03-17T13:07:34;102008.59;;;13.67;66.76
77662;BME280;69666;52.136;5.424;2024-03-17T13:10:02;102010.66;;;13.65;67.11
77662;BME280;69666;52.136;5.424;2024-03-17T13:12:34;102002.31;;;13.59;66.63
77662;BME280;69666;52.136;5.424;2024-03-17T13:15:00;102006.06;;;13.58;67.15
77662;BME280;69666;52.136;5.424;2024-03-17T13:17:27;101996.28;;;13.57;67.25